Time;durP1;ratioP1;P1;durP2;ratioP2;P2;SDS_P1;SDS_P2;PMS_P1;PMS_P2;Temp;Humidity;BMP_temperature;BMP_pressure;BME280_temperature;BME280_humidity;BME280_pressure;Samples;Min_cycle;Max_cycle;Signal;HPM_P1;HPM_P2
2023/11/06 00:02:13;;;;;;;6.10;2.30;;;;;;;20.64;100.00;98790.09;106149;1258;68345;-86
2023/11/06 00:04:42;;;;;;;5.30;2.50;;;;;;;20.62;100.00;98794.20;106642;1254;72664;-86
2023/11/06 00:07:17;;;;;;;6.80;2.40;;;;;;;20.70;100.00;98792.74;106013;1260;61257;-87
2023/11/06 00:09:48;;;;;;;6.50;2.20;;;;;;;20.73;100.00;98791.17;106036;1257;61347;-86
2023/11/06 00:12:20;;;;;;;5.70;2.20;;;;;;;20.77;100.00;98784.45;106024;1260;74636;-87
2023/11/06 00:14:53;;;;;;;7.80;3.10;;;;;;;20.54;100.00;98775.11;105976;1260;67107;-85
2023/11/06 00:17:26;;;;;;;;;;;;;;;20.32;100.00;98772.96;106407;1257;71441;-80
2023/11/06 00:20:00;;;;;;;5.80;2.30;;;;;;;20.18;100.00;98775.80;106086;1254;61687;-86
2023/11/06 00:22:33;;;;;;;6.90;2.10;;;;;;;20.25;100.00;98765.23;106073;1254;61200;-81
2023/11/06 00:25:05;;;;;;;4.70;2.20;;;;;;;20.26;100.00;98762.46;106024;1257;74644;-80
2023/11/06 00:27:38;;;;;;;3.60;2.10;;;;;;;20.23;100.00;98764.90;106208;1259;69785;-81
2023/11/06 00:30:11;;;;;;;8.00;2.30;;;;;;;20.19;100.00;98763.29;105905;1260;72675;-81
2023/11/06 00:32:43;;;;;;;6.60;2.30;;;;;;;20.14;100.00;98769.20;105944;1257;61266;-81
2023/11/06 00:35:21;;;;;;;;;;;;;;;20.22;100.00;98772.80;106113;1260;61162;-80
2023/11/06 00:37:49;;;;;;;5.00;2.20;;;;;;;20.13;100.00;98771.64;105891;1260;73756;-88
2023/11/06 00:40:21;;;;;;;6.00;2.60;;;;;;;20.22;100.00;98769.64;106000;1261;67267;-81
2023/11/06 00:42:54;;;;;;;4.60;2.10;;;;;;;20.21;100.00;98761.88;106252;1259;72891;-87
2023/11/06 00:45:28;;;;;;;3.70;1.80;;;;;;;20.13;100.00;98763.55;106380;1256;61644;-86
2023/11/06 00:48:01;;;;;;;6.40;2.50;;;;;;;20.14;100.00;98762.22;106100;1254;61388;-81
2023/11/06 00:50:33;;;;;;;6.30;2.30;;;;;;;20.20;100.00;98757.52;106137;1257;75084;-86
2023/11/06 00:53:07;;;;;;;5.20;2.40;;;;;;;20.22;100.00;98755.70;106046;1262;66912;-80
2023/11/06 00:55:41;;;;;;;4.40;2.10;;;;;;;20.26;100.00;98755.88;105976;1260;72688;-86
2023/11/06 00:58:12;;;;;;;9.10;2.10;;;;;;;20.29;100.00;98754.16;106852;1254;62203;-86
2023/11/06 01:00:45;;;;;;;4.50;2.30;;;;;;;20.35;100.00;98754.99;106002;1258;61241;-87
2023/11/06 01:03:17;;;;;;;7.50;2.10;;;;;;;20.35;100.00;98754.84;105984;1258;74688;-81
2023/11/06 01:05:51;;;;;;;;;;;;;;;20.38;100.00;98753.51;106264;1254;68866;-81
2023/11/06 01:08:19;;;;;;;6.10;2.30;;;;;;;20.40;100.00;98752.18;106543;1255;71847;-87
2023/11/06 01:10:51;;;;;;;7.70;2.10;;;;;;;20.35;100.00;98752.38;105909;1254;61252;-87
2023/11/06 01:13:19;;;;;;;;;;;;;;;20.31;100.00;98754.25;106186;1259;61117;-87
2023/11/06 01:15:51;;;;;;;7.30;2.10;;;;;;;20.17;100.00;98758.11;106403;1259;74701;-81
2023/11/06 01:18:20;;;;;;;;;;;;;;;20.12;100.00;98759.35;106345;1259;68321;-87
2023/11/06 01:20:48;;;;;;;7.20;2.60;;;;;;;20.13;100.00;98764.20;106151;1257;73011;-81
2023/11/06 01:23:20;;;;;;;7.60;2.50;;;;;;;20.12;100.00;98761.88;106051;1262;61323;-87
2023/11/06 01:25:52;;;;;;;5.80;2.00;;;;;;;20.17;100.00;98764.30;105919;1260;61301;-87
2023/11/06 01:28:25;;;;;;;3.30;1.80;;;;;;;20.22;100.00;98765.20;106570;1260;73413;-81
2023/11/06 01:30:56;;;;;;;;;;;;;;;20.25;100.00;98768.95;105911;1264;66982;-81
2023/11/06 01:33:24;;;;;;;5.70;1.80;;;;;;;20.16;100.00;98772.53;105911;1261;72448;-81
2023/11/06 01:35:55;;;;;;;4.20;1.90;;;;;;;20.18;100.00;98772.78;105935;1257;61330;-81
2023/11/06 01:38:26;;;;;;;4.60;1.90;;;;;;;20.24;100.00;98778.53;106483;1257;61323;-87
2023/11/06 01:40:58;;;;;;;7.80;2.40;;;;;;;20.28;100.00;98782.61;106086;1254;72479;-87
2023/11/06 01:43:31;;;;;;;9.70;2.00;;;;;;;20.25;100.00;98789.00;105962;1260;67551;-86
2023/11/06 01:46:04;;;;;;;6.70;1.80;;;;;;;20.29;100.00;98791.80;106225;1258;71455;-80
2023/11/06 01:48:36;;;;;;;3.80;1.60;;;;;;;20.37;100.00;98787.02;106183;1257;61684;-80
2023/11/06 01:51:08;;;;;;;4.60;1.70;;;;;;;20.42;100.00;98789.52;106060;1256;61110;-87
2023/11/06 01:53:42;;;;;;;5.80;1.90;;;;;;;20.45;100.00;98784.95;106040;1257;73774;-87
2023/11/06 01:56:14;;;;;;;4.20;1.60;;;;;;;20.45;100.00;98784.48;106566;1254;68876;-87
2023/11/06 01:58:46;;;;;;;3.80;1.50;;;;;;;20.52;100.00;98788.56;106067;1257;72734;-87
2023/11/06 02:01:19;;;;;;;4.20;1.80;;;;;;;20.24;100.00;98787.95;105796;1261;61229;-87
2023/11/06 02:03:53;;;;;;;5.90;1.60;;;;;;;20.12;100.00;98789.45;106034;1257;61263;-80
2023/11/06 02:06:26;;;;;;;6.10;1.50;;;;;;;20.11;100.00;98793.89;106463;1259;73053;-81
2023/11/06 02:08:54;;;;;;;3.50;1.60;;;;;;;20.19;100.00;98794.19;106054;1259;68471;-81
2023/11/06 02:11:27;;;;;;;4.10;1.50;;;;;;;20.16;100.00;98796.14;106087;1254;72847;-81
2023/11/06 02:13:55;;;;;;;2.70;1.40;;;;;;;20.25;100.00;98793.91;105815;1254;61249;-86
2023/11/06 02:16:23;;;;;;;6.70;1.80;;;;;;;20.26;100.00;98794.15;106558;1257;61147;-86
2023/11/06 02:18:52;;;;;;;4.40;1.80;;;;;;;20.22;100.00;98802.45;105870;1260;74658;-87
2023/11/06 02:21:24;;;;;;;7.30;1.80;;;;;;;20.34;100.00;98807.69;105972;1257;68348;-81
2023/11/06 02:23:56;;;;;;;4.60;2.30;;;;;;;20.18;100.00;98815.33;106170;1256;72725;-86
2023/11/06 02:26:30;;;;;;;9.90;1.80;;;;;;;20.19;100.00;98823.35;106324;1254;61759;-81
2023/11/06 02:28:58;;;;;;;4.30;1.80;;;;;;;20.10;100.00;98823.10;106086;1254;61145;-87
2023/11/06 02:31:30;;;;;;;4.00;1.90;;;;;;;19.98;100.00;98823.72;105980;1254;73943;-86
2023/11/06 02:33:58;;;;;;;4.40;1.40;;;;;;;19.89;100.00;98832.02;106123;1260;67066;-87
2023/11/06 02:36:26;;;;;;;4.30;1.70;;;;;;;19.85;100.00;98835.39;105924;1259;71465;-86
2023/11/06 02:38:59;;;;;;;6.10;1.70;;;;;;;19.87;100.00;98833.66;106630;1263;61178;-81
2023/11/06 02:41:30;;;;;;;6.30;1.40;;;;;;;19.97;100.00;98832.17;106131;1257;61439;-87
2023/11/06 02:44:02;;;;;;;4.90;1.50;;;;;;;19.83;100.00;98832.91;105933;1260;74655;-81
2023/11/06 02:46:34;;;;;;;;;;;;;;;19.77;100.00;98832.79;105936;1257;68453;-87
2023/11/06 02:49:07;;;;;;;3.80;1.30;;;;;;;19.71;100.00;98838.27;106456;1260;71077;-81
2023/11/06 02:51:39;;;;;;;4.50;1.50;;;;;;;19.80;100.00;98844.44;105885;1257;61306;-81
2023/11/06 02:54:13;;;;;;;;;;;;;;;19.82;100.00;98851.52;106077;1257;61267;-87
2023/11/06 02:56:44;;;;;;;7.00;1.90;;;;;;;19.85;100.00;98852.09;106002;1258;74735;-86
2023/11/06 02:59:16;;;;;;;4.20;1.40;;;;;;;19.89;100.00;98857.98;106631;1253;68723;-80
2023/11/06 03:01:48;;;;;;;5.20;1.40;;;;;;;20.07;100.00;98861.50;106069;1261;71427;-81
2023/11/06 03:04:21;;;;;;;4.90;1.30;;;;;;;19.92;100.00;98863.02;106032;1258;61385;-87
2023/11/06 03:06:55;;;;;;;4.20;1.40;;;;;;;19.69;100.00;98865.21;105936;1257;61354;-87
2023/11/06 03:09:24;;;;;;;3.50;1.40;;;;;;;19.48;100.00;98861.01;106405;1258;75018;-81
2023/11/06 03:11:57;;;;;;;2.40;1.20;;;;;;;19.48;100.00;98858.15;105954;1256;68504;-81
2023/11/06 03:14:25;;;;;;;2.20;1.50;;;;;;;19.58;100.00;98859.14;105992;1258;72718;-81
2023/11/06 03:16:53;;;;;;;4.30;1.30;;;;;;;19.50;100.00;98861.10;105945;1257;61374;-87
2023/11/06 03:19:21;;;;;;;2.30;1.00;;;;;;;19.54;100.00;98864.23;106756;1255;61243;-81
2023/11/06 03:21:52;;;;;;;2.40;1.40;;;;;;;19.65;100.00;98868.33;106020;1257;73477;-86
2023/11/06 03:24:26;;;;;;;4.10;1.30;;;;;;;19.67;100.00;98863.14;105905;1258;67245;-87
2023/11/06 03:26:57;;;;;;;2.00;1.20;;;;;;;19.79;100.00;98862.73;105909;1256;72513;-81
2023/11/06 03:29:28;;;;;;;2.50;1.10;;;;;;;19.74;100.00;98862.13;105947;1256;61219;-81
2023/11/06 03:32:01;;;;;;;4.00;1.20;;;;;;;19.66;100.00;98872.15;106778;1255;61325;-86
2023/11/06 03:34:35;;;;;;;;;;;;;;;19.64;100.00;98874.73;106142;1257;74704;-82
2023/11/06 03:37:08;;;;;;;3.10;1.20;;;;;;;19.53;100.00;98877.67;105955;1256;68447;-81
2023/11/06 03:39:41;;;;;;;3.50;1.00;;;;;;;19.42;100.00;98881.11;106087;1255;72686;-86
2023/11/06 03:42:13;;;;;;;8.40;1.30;;;;;;;19.40;100.00;98881.80;106562;1255;61286;-86
2023/11/06 03:44:45;;;;;;;;;;;;;;;19.47;100.00;98881.32;105992;1256;61344;-81
2023/11/06 03:47:18;;;;;;;3.90;1.20;;;;;;;19.37;100.00;98895.06;105810;1257;76780;-81
2023/11/06 03:49:50;;;;;;;;;;;;;;;19.33;100.00;98902.28;105858;1258;68694;-82
2023/11/06 03:52:23;;;;;;;6.00;1.50;;;;;;;19.22;100.00;98909.17;106205;1257;72707;-87
2023/11/06 03:54:55;;;;;;;3.30;1.20;;;;;;;19.20;100.00;98916.50;106000;1255;61331;-87
2023/11/06 03:57:26;;;;;;;3.20;1.40;;;;;;;19.21;100.00;98922.22;106205;1257;62130;-87
2023/11/06 04:00:02;;;;;;;3.80;1.40;;;;;;;19.13;100.00;98925.91;105977;1259;74670;-87
2023/11/06 04:02:37;;;;;;;3.30;1.10;;;;;;;19.16;100.00;98925.54;106046;1260;68371;-87
2023/11/06 04:05:10;;;;;;;4.30;1.20;;;;;;;19.21;100.00;98928.08;106919;1256;72706;-81
2023/11/06 04:07:42;;;;;;;3.30;1.20;;;;;;;19.23;100.00;98929.45;106061;1258;61219;-81
2023/11/06 04:10:15;;;;;;;2.80;1.30;;;;;;;19.25;100.00;98934.55;106013;1258;61132;-86
2023/11/06 04:12:42;;;;;;;;;;;;;;;19.19;100.00;98937.46;106100;1257;74647;-81
2023/11/06 04:15:17;;;;;;;3.60;1.10;;;;;;;19.31;100.00;98938.66;106858;1254;68909;-87
2023/11/06 04:17:47;;;;;;;5.80;1.00;;;;;;;19.28;100.00;98947.88;106007;1257;71509;-86
2023/11/06 04:20:19;;;;;;;2.50;1.10;;;;;;;19.17;100.00;98956.89;106115;1255;61701;-86
2023/11/06 04:22:51;;;;;;;2.30;1.10;;;;;;;19.16;100.00;98961.07;106006;1260;61161;-81
2023/11/06 04:25:25;;;;;;;3.90;1.10;;;;;;;18.91;100.00;98962.67;106365;1260;74700;-87
2023/11/06 04:27:58;;;;;;;2.90;1.10;;;;;;;18.89;100.00;98970.30;106314;1258;67586;-82
2023/11/06 04:30:30;;;;;;;;;;;;;;;18.93;100.00;98977.87;106110;1257;72418;-86
2023/11/06 04:33:05;;;;;;;2.30;1.50;;;;;;;18.97;100.00;98984.59;106034;1257;61336;-87
2023/11/06 04:35:35;;;;;;;3.30;1.10;;;;;;;18.89;100.00;98990.25;106689;1255;61108;-87
2023/11/06 04:38:07;;;;;;;2.20;1.00;;;;;;;18.86;100.00;98988.77;105988;1257;74654;-88
2023/11/06 04:40:40;;;;;;;2.90;1.60;;;;;;;18.84;100.00;98987.06;106483;1254;68707;-87
2023/11/06 04:43:12;;;;;;;1.30;1.10;;;;;;;18.86;100.00;98998.58;106203;1257;72631;-83
2023/11/06 04:45:45;;;;;;;4.60;1.20;;;;;;;18.89;100.00;99007.64;106640;1256;61435;-83
2023/11/06 04:48:17;;;;;;;7.10;1.30;;;;;;;18.94;100.00;99013.48;106097;1255;61204;-82
2023/11/06 04:50:51;;;;;;;4.90;1.30;;;;;;;18.85;100.00;99023.61;105890;1257;75023;-82
2023/11/06 04:53:24;;;;;;;2.10;1.10;;;;;;;18.90;100.00;99032.32;105987;1256;68450;-87
2023/11/06 04:55:56;;;;;;;3.00;1.60;;;;;;;18.86;100.00;99034.00;106349;1257;71129;-82
2023/11/06 04:58:31;;;;;;;3.00;1.50;;;;;;;18.79;100.00;99039.54;105945;1256;61405;-88
2023/11/06 05:01:00;;;;;;;1.80;1.10;;;;;;;18.69;100.00;99045.84;105925;1254;61368;-87
2023/11/06 05:03:36;;;;;;;2.80;1.60;;;;;;;18.69;100.00;99053.98;105961;1256;73892;-87
2023/11/06 05:06:10;;;;;;;3.10;1.20;;;;;;;18.79;99.74;99058.36;106941;1254;67318;-88
2023/11/06 05:08:40;;;;;;;2.50;1.20;;;;;;;18.85;98.54;99072.41;106267;1258;72498;-87
2023/11/06 05:11:12;;;;;;;1.60;1.20;;;;;;;19.03;96.72;99075.23;106202;1258;61730;-88
2023/11/06 05:13:51;;;;;;;3.30;1.40;;;;;;;18.97;96.41;99080.44;106427;1258;61161;-82
2023/11/06 05:16:20;;;;;;;3.50;1.50;;;;;;;18.80;97.16;99086.69;107042;1255;74677;-81
2023/11/06 05:18:53;;;;;;;1.80;0.90;;;;;;;18.81;96.80;99095.09;106135;1258;124990;-87
2023/11/06 05:21:30;;;;;;;;;;;;;;;18.68;97.55;99096.17;106026;1259;71443;-87
2023/11/06 05:24:00;;;;;;;4.10;1.80;;;;;;;18.58;97.93;99103.25;106222;1257;61348;-81
2023/11/06 05:26:32;;;;;;;3.90;1.20;;;;;;;18.60;97.75;99107.48;106329;1255;61168;-81
2023/11/06 05:29:04;;;;;;;6.80;2.50;;;;;;;18.67;96.74;99120.41;106466;1255;73335;-88
2023/11/06 05:31:38;;;;;;;2.60;1.70;;;;;;;18.65;96.52;99117.21;105892;1260;67426;-81
2023/11/06 05:34:08;;;;;;;6.10;1.90;;;;;;;18.58;96.80;99122.77;106110;1256;72669;-86
2023/11/06 05:36:36;;;;;;;5.10;2.30;;;;;;;18.50;96.89;99125.77;106137;1256;61750;-81
2023/11/06 05:39:13;;;;;;;3.90;1.50;;;;;;;18.45;97.21;99122.91;106467;1254;61429;-87
2023/11/06 05:41:48;;;;;;;6.40;2.90;;;;;;;18.61;95.69;99123.30;106017;1260;74680;-87
2023/11/06 05:44:15;;;;;;;11.10;4.40;;;;;;;18.59;95.39;99131.55;106444;1254;67146;-87
2023/11/06 05:46:44;;;;;;;8.50;3.80;;;;;;;18.45;96.73;99140.70;106214;1254;72640;-87
2023/11/06 05:49:15;;;;;;;15.50;5.50;;;;;;;18.29;98.27;99147.70;106212;1254;61435;-79
2023/11/06 05:51:49;;;;;;;8.60;3.90;;;;;;;18.36;98.53;99147.77;106461;1254;61279;-87
2023/11/06 05:54:21;;;;;;;3.90;2.50;;;;;;;18.46;98.25;99148.61;105890;1261;73660;-86
2023/11/06 05:56:55;;;;;;;2.50;1.80;;;;;;;18.40;99.49;99154.81;106246;1254;68372;-85
2023/11/06 05:59:27;;;;;;;1.60;1.50;;;;;;;18.34;100.00;99163.77;106290;1254;72708;-85
2023/11/06 06:01:59;;;;;;;2.20;1.40;;;;;;;18.47;100.00;99165.86;106616;1254;61270;-81
2023/11/06 06:04:31;;;;;;;2.90;1.40;;;;;;;18.55;100.00;99165.86;106032;1255;61280;-86
2023/11/06 06:07:09;;;;;;;3.10;1.20;;;;;;;18.67;100.00;99166.52;106062;1255;73433;-86
2023/11/06 06:09:39;;;;;;;3.70;2.20;;;;;;;18.82;99.32;99165.17;106454;1255;67560;-82
2023/11/06 06:12:12;;;;;;;5.80;2.00;;;;;;;18.99;97.03;99171.27;105980;1255;70651;-82
2023/11/06 06:14:44;;;;;;;1.60;1.10;;;;;;;19.06;96.23;99171.78;106016;1255;61404;-87
2023/11/06 06:17:18;;;;;;;2.90;1.50;;;;;;;19.12;95.33;99177.20;106129;1254;61456;-82
2023/11/06 06:19:53;;;;;;;2.10;1.30;;;;;;;19.21;93.96;99184.17;106910;1254;74602;-82
2023/11/06 06:22:26;;;;;;;2.00;1.20;;;;;;;19.16;93.70;99182.97;106289;1254;67269;-86
2023/11/06 06:24:56;;;;;;;2.00;1.20;;;;;;;19.32;91.49;99196.77;106299;1260;71387;-81
2023/11/06 06:27:28;;;;;;;4.10;1.50;;;;;;;19.44;90.79;99202.45;106151;1256;61707;-82
2023/11/06 06:30:05;;;;;;;2.00;1.40;;;;;;;19.62;88.49;99208.23;106338;1255;61268;-82
2023/11/06 06:32:36;;;;;;;2.90;1.20;;;;;;;19.79;86.57;99210.59;106895;1255;73432;-82
2023/11/06 06:35:08;;;;;;;1.60;1.30;;;;;;;19.98;84.68;99208.51;106154;1254;67206;-82
2023/11/06 06:37:40;;;;;;;4.80;1.60;;;;;;;20.12;82.26;99211.49;105977;1260;72648;-82
2023/11/06 06:40:10;;;;;;;2.80;1.60;;;;;;;20.22;78.65;99219.00;105991;1257;61226;-87
2023/11/06 06:42:44;;;;;;;2.50;1.10;;;;;;;20.37;77.04;99223.65;107363;1254;60661;-84
2023/11/06 06:45:18;;;;;;;3.00;1.70;;;;;;;20.48;73.42;99231.20;106112;1254;73453;-83
2023/11/06 06:47:54;;;;;;;2.30;1.10;;;;;;;20.37;74.73;99229.84;106133;1254;68872;-82
2023/11/06 06:50:28;;;;;;;3.30;1.30;;;;;;;20.52;73.21;99235.67;105931;1254;71447;-86
2023/11/06 06:53:05;;;;;;;3.70;1.30;;;;;;;20.50;71.33;99238.96;106894;1254;61317;-81
2023/11/06 06:55:38;;;;;;;2.00;1.20;;;;;;;20.58;69.83;99243.55;106330;1253;61333;-85
2023/11/06 06:58:12;;;;;;;2.60;1.40;;;;;;;20.69;69.03;99246.33;106245;1254;74608;-82
2023/11/06 07:00:46;;;;;;;1.80;1.10;;;;;;;20.82;68.47;99250.37;106162;1259;67474;-83
2023/11/06 07:03:26;;;;;;;1.40;1.20;;;;;;;20.98;67.46;99250.80;106231;1254;71391;-83
2023/11/06 23:09:08;;;;;;;1.50;1.00;;;;;;;17.88;47.04;100391.27;105913;1254;61340;-82
2023/11/06 23:11:43;;;;;;;4.70;1.30;;;;;;;17.92;46.95;100398.98;106522;1255;73360;-86
2023/11/06 23:14:17;;;;;;;1.50;1.00;;;;;;;17.92;46.83;100403.52;106010;1260;68432;-86
2023/11/06 23:16:52;;;;;;;1.70;0.80;;;;;;;17.95;46.75;100401.29;105969;1260;71447;-86
2023/11/06 23:19:26;;;;;;;2.10;1.00;;;;;;;17.93;46.72;100404.75;106445;1254;61238;-83
2023/11/06 23:21:59;;;;;;;1.00;0.80;;;;;;;17.97;46.54;100405.08;106029;1255;61274;-86
2023/11/06 23:24:38;;;;;;;1.40;1.00;;;;;;;17.85;46.69;100406.29;106198;1254;74664;-87
2023/11/06 23:27:09;;;;;;;1.70;1.10;;;;;;;17.61;47.09;100410.90;106155;1260;69293;-82
2023/11/06 23:29:43;;;;;;;1.60;1.10;;;;;;;17.61;47.01;100410.98;106981;1255;73547;-83
2023/11/06 23:32:11;;;;;;;1.50;1.00;;;;;;;17.65;47.04;100412.66;106018;1258;61171;-82
2023/11/06 23:34:42;;;;;;;2.70;1.00;;;;;;;17.70;46.87;100417.45;105989;1254;61383;-86
2023/11/06 23:37:15;;;;;;;1.90;0.90;;;;;;;17.75;46.74;100421.77;106033;1260;73417;-86
2023/11/06 23:39:48;;;;;;;2.30;1.00;;;;;;;17.59;46.91;100422.92;106123;1254;68534;-86
2023/11/06 23:42:20;;;;;;;1.30;0.80;;;;;;;17.56;46.93;100430.67;106857;1259;71485;-86
2023/11/06 23:44:51;;;;;;;1.70;1.10;;;;;;;17.60;46.82;100433.76;105906;1260;61217;-85
2023/11/06 23:47:24;;;;;;;1.00;0.70;;;;;;;17.66;46.60;100439.46;105994;1257;61304;-86
2023/11/06 23:49:58;;;;;;;1.50;1.00;;;;;;;17.56;46.75;100441.27;105989;1254;74698;-83
2023/11/06 23:52:26;;;;;;;1.80;1.10;;;;;;;17.66;46.55;100446.36;106424;1255;68326;-84
2023/11/06 23:55:05;;;;;;;1.60;1.00;;;;;;;17.63;46.64;100452.45;106149;1256;72720;-86
2023/11/06 23:57:33;;;;;;;1.60;0.70;;;;;;;17.46;46.89;100457.63;106033;1255;61228;-83
